sensor_id;sensor_type;location;lat;lon;timestamp;temperature;humidity
10788;DHT22;5446;50.826;4.380;2023-12-14T00:00:14;9.00;99.90
10788;DHT22;5446;50.826;4.380;2023-12-14T00:02:39;8.90;99.90
10788;DHT22;5446;50.826;4.380;2023-12-14T00:05:06;9.00;99.90
10788;DHT22;5446;50.826;4.380;2023-12-14T00:07:32;9.00;99.90
10788;DHT22;5446;50.826;4.380;2023-12-14T00:09:57;8.90;99.90
10788;DHT22;5446;50.826;4.380;2023-12-14T00:12:23;9.00;99.90
10788;DHT22;5446;50.826;4.380;2023-12-14T00:14:49;9.00;99.90
10788;DHT22;5446;50.826;4.380;2023-12-14T00:17:15;8.90;99.90
10788;DHT22;5446;50.826;4.380;2023-12-14T00:19:40;8.90;99.90
10788;DHT22;5446;50.826;4.380;2023-12-14T00:22:06;8.90;99.90
10788;DHT22;5446;50.826;4.380;2023-12-14T00:24:32;8.90;99.90
10788;DHT22;5446;50.826;4.380;2023-12-14T00:26:58;8.90;99.90
10788;DHT22;5446;50.826;4.380;2023-12-14T00:29:23;9.00;99.90
10788;DHT22;5446;50.826;4.380;2023-12-14T00:31:49;8.90;99.90
10788;DHT22;5446;50.826;4.380;2023-12-14T00:34:15;8.90;99.90
10788;DHT22;5446;50.826;4.380;2023-12-14T00:36:41;8.90;99.90
10788;DHT22;5446;50.826;4.380;2023-12-14T00:39:06;8.90;99.90
10788;DHT22;5446;50.826;4.380;2023-12-14T00:41:32;9.00;99.90
10788;DHT22;5446;50.826;4.380;2023-12-14T00:43:58;8.90;99.90
10788;DHT22;5446;50.826;4.380;2023-12-14T00:46:24;8.90;99.90
10788;DHT22;5446;50.826;4.380;2023-12-14T00:48:50;9.00;99.90
10788;DHT22;5446;50.826;4.380;2023-12-14T00:51:17;8.90;99.90
10788;DHT22;5446;50.826;4.380;2023-12-14T00:53:43;9.00;99.90
10788;DHT22;5446;50.826;4.380;2023-12-14T00:56:09;9.00;99.90
10788;DHT22;5446;50.826;4.380;2023-12-14T00:58:35;8.90;99.90
10788;DHT22;5446;50.826;4.380;2023-12-14T01:01:00;8.90;99.90
10788;DHT22;5446;50.826;4.380;2023-12-14T01:03:26;8.90;99.90
10788;DHT22;5446;50.826;4.380;2023-12-14T01:05:52;8.90;99.90
10788;DHT22;5446;50.826;4.380;2023-12-14T01:08:17;8.90;99.90
10788;DHT22;5446;50.826;4.380;2023-12-14T01:10:43;8.90;99.90
10788;DHT22;5446;50.826;4.380;2023-12-14T01:13:09;8.90;99.90
10788;DHT22;5446;50.826;4.380;2023-12-14T01:15:35;8.90;99.90
10788;DHT22;5446;50.826;4.380;2023-12-14T01:18:01;8.90;99.90
10788;DHT22;5446;50.826;4.380;2023-12-14T01:20:26;9.00;99.90
10788;DHT22;5446;50.826;4.380;2023-12-14T01:22:52;9.00;99.90
10788;DHT22;5446;50.826;4.380;2023-12-14T01:25:18;9.00;99.90
10788;DHT22;5446;50.826;4.380;2023-12-14T01:27:44;8.90;99.90
10788;DHT22;5446;50.826;4.380;2023-12-14T01:30:10;8.90;99.90
10788;DHT22;5446;50.826;4.380;2023-12-14T01:32:36;8.90;99.90
10788;DHT22;5446;50.826;4.380;2023-12-14T01:35:02;8.90;99.90
10788;DHT22;5446;50.826;4.380;2023-12-14T01:37:28;8.80;99.90
10788;DHT22;5446;50.826;4.380;2023-12-14T01:39:53;8.80;99.90
10788;DHT22;5446;50.826;4.380;2023-12-14T01:42:19;8.80;99.90
10788;DHT22;5446;50.826;4.380;2023-12-14T01:44:45;8.80;99.90
10788;DHT22;5446;50.826;4.380;2023-12-14T01:47:11;8.80;99.90
10788;DHT22;5446;50.826;4.380;2023-12-14T01:49:36;8.80;99.90
10788;DHT22;5446;50.826;4.380;2023-12-14T01:52:02;8.80;99.90
10788;DHT22;5446;50.826;4.380;2023-12-14T01:54:28;8.80;99.90
10788;DHT22;5446;50.826;4.380;2023-12-14T01:56:54;8.80;99.90
10788;DHT22;5446;50.826;4.380;2023-12-14T01:59:20;8.80;99.90
10788;DHT22;5446;50.826;4.380;2023-12-14T02:01:47;8.90;99.90
10788;DHT22;5446;50.826;4.380;2023-12-14T02:04:17;8.80;99.90
10788;DHT22;5446;50.826;4.380;2023-12-14T02:06:43;8.90;99.90
10788;DHT22;5446;50.826;4.380;2023-12-14T02:09:09;8.80;99.90
10788;DHT22;5446;50.826;4.380;2023-12-14T02:11:36;8.80;99.90
10788;DHT22;5446;50.826;4.380;2023-12-14T02:14:05;8.80;99.90
10788;DHT22;5446;50.826;4.380;2023-12-14T02:16:31;8.80;99.90
10788;DHT22;5446;50.826;4.380;2023-12-14T02:18:57;8.70;99.90
10788;DHT22;5446;50.826;4.380;2023-12-14T02:21:23;8.70;99.90
10788;DHT22;5446;50.826;4.380;2023-12-14T02:23:49;8.60;99.90
10788;DHT22;5446;50.826;4.380;2023-12-14T02:26:15;8.60;99.90
10788;DHT22;5446;50.826;4.380;2023-12-14T02:28:41;8.60;99.90
10788;DHT22;5446;50.826;4.380;2023-12-14T02:31:08;8.50;99.90
10788;DHT22;5446;50.826;4.380;2023-12-14T02:33:33;8.50;99.90
10788;DHT22;5446;50.826;4.380;2023-12-14T02:36:00;8.40;99.90
10788;DHT22;5446;50.826;4.380;2023-12-14T02:38:25;8.40;99.90
10788;DHT22;5446;50.826;4.380;2023-12-14T02:40:51;8.30;99.90
10788;DHT22;5446;50.826;4.380;2023-12-14T02:43:18;8.20;99.90
10788;DHT22;5446;50.826;4.380;2023-12-14T02:45:53;8.20;99.90
10788;DHT22;5446;50.826;4.380;2023-12-14T02:48:20;8.20;99.90
10788;DHT22;5446;50.826;4.380;2023-12-14T02:50:46;8.20;99.90
10788;DHT22;5446;50.826;4.380;2023-12-14T02:53:12;8.20;99.90
10788;DHT22;5446;50.826;4.380;2023-12-14T02:55:37;8.20;99.90
10788;DHT22;5446;50.826;4.380;2023-12-14T02:58:03;8.20;99.90
10788;DHT22;5446;50.826;4.380;2023-12-14T03:00:29;8.20;99.90
10788;DHT22;5446;50.826;4.380;2023-12-14T03:02:55;8.10;99.90
10788;DHT22;5446;50.826;4.380;2023-12-14T03:05:21;8.10;99.90
10788;DHT22;5446;50.826;4.380;2023-12-14T03:07:47;8.00;99.90
10788;DHT22;5446;50.826;4.380;2023-12-14T03:10:12;8.00;99.90
10788;DHT22;5446;50.826;4.380;2023-12-14T03:12:38;8.00;99.90
10788;DHT22;5446;50.826;4.380;2023-12-14T03:15:04;8.10;99.90
10788;DHT22;5446;50.826;4.380;2023-12-14T03:17:30;8.00;99.90
10788;DHT22;5446;50.826;4.380;2023-12-14T03:19:55;7.90;99.90
10788;DHT22;5446;50.826;4.380;2023-12-14T03:22:22;8.00;99.90
10788;DHT22;5446;50.826;4.380;2023-12-14T03:24:47;7.90;99.90
10788;DHT22;5446;50.826;4.380;2023-12-14T03:27:13;7.80;99.90
10788;DHT22;5446;50.826;4.380;2023-12-14T03:29:39;7.80;99.90
10788;DHT22;5446;50.826;4.380;2023-12-14T03:32:05;7.70;99.90
10788;DHT22;5446;50.826;4.380;2023-12-14T03:34:31;7.80;99.90
10788;DHT22;5446;50.826;4.380;2023-12-14T03:36:57;7.70;99.90
10788;DHT22;5446;50.826;4.380;2023-12-14T03:39:22;7.70;99.90
10788;DHT22;5446;50.826;4.380;2023-12-14T03:41:48;7.70;99.90
10788;DHT22;5446;50.826;4.380;2023-12-14T03:44:14;7.70;99.90
10788;DHT22;5446;50.826;4.380;2023-12-14T03:46:40;7.70;99.90
10788;DHT22;5446;50.826;4.380;2023-12-14T03:49:05;7.60;99.90
10788;DHT22;5446;50.826;4.380;2023-12-14T03:51:31;7.60;99.90
10788;DHT22;5446;50.826;4.380;2023-12-14T03:53:57;7.50;99.90
10788;DHT22;5446;50.826;4.380;2023-12-14T03:56:23;7.50;99.90
10788;DHT22;5446;50.826;4.380;2023-12-14T03:58:49;7.30;99.90
10788;DHT22;5446;50.826;4.380;2023-12-14T04:01:19;7.20;99.90
10788;DHT22;5446;50.826;4.380;2023-12-14T04:03:45;7.20;99.90
10788;DHT22;5446;50.826;4.380;2023-12-14T04:06:12;7.20;99.90
10788;DHT22;5446;50.826;4.380;2023-12-14T04:08:38;7.20;99.90
10788;DHT22;5446;50.826;4.380;2023-12-14T04:11:04;7.20;99.90
10788;DHT22;5446;50.826;4.380;2023-12-14T04:13:30;7.20;99.90
10788;DHT22;5446;50.826;4.380;2023-12-14T04:15:56;7.20;99.90
10788;DHT22;5446;50.826;4.380;2023-12-14T04:18:23;7.20;99.90
10788;DHT22;5446;50.826;4.380;2023-12-14T04:20:49;7.10;99.90
10788;DHT22;5446;50.826;4.380;2023-12-14T04:23:15;7.10;99.90
10788;DHT22;5446;50.826;4.380;2023-12-14T04:25:40;7.10;99.90
10788;DHT22;5446;50.826;4.380;2023-12-14T04:28:06;7.00;99.90
10788;DHT22;5446;50.826;4.380;2023-12-14T04:30:32;6.80;99.90
10788;DHT22;5446;50.826;4.380;2023-12-14T04:32:57;6.80;99.90
10788;DHT22;5446;50.826;4.380;2023-12-14T04:35:23;6.80;99.90
10788;DHT22;5446;50.826;4.380;2023-12-14T04:37:49;6.80;99.90
10788;DHT22;5446;50.826;4.380;2023-12-14T04:40:15;6.80;99.90
10788;DHT22;5446;50.826;4.380;2023-12-14T04:42:41;6.90;99.90
10788;DHT22;5446;50.826;4.380;2023-12-14T04:45:07;6.70;99.90
10788;DHT22;5446;50.826;4.380;2023-12-14T04:47:35;6.70;99.90
10788;DHT22;5446;50.826;4.380;2023-12-14T04:50:02;6.70;99.90
10788;DHT22;5446;50.826;4.380;2023-12-14T04:52:28;6.80;99.90
10788;DHT22;5446;50.826;4.380;2023-12-14T04:54:53;6.80;99.90
10788;DHT22;5446;50.826;4.380;2023-12-14T04:57:19;6.80;99.90
10788;DHT22;5446;50.826;4.380;2023-12-14T04:59:45;6.80;99.90
10788;DHT22;5446;50.826;4.380;2023-12-14T05:02:10;6.80;99.90
10788;DHT22;5446;50.826;4.380;2023-12-14T05:04:36;6.80;99.90
10788;DHT22;5446;50.826;4.380;2023-12-14T05:07:02;6.80;99.90
10788;DHT22;5446;50.826;4.380;2023-12-14T05:09:28;6.80;99.90
10788;DHT22;5446;50.826;4.380;2023-12-14T05:11:54;6.90;99.90
10788;DHT22;5446;50.826;4.380;2023-12-14T05:14:19;6.80;99.90
10788;DHT22;5446;50.826;4.380;2023-12-14T05:16:45;6.70;99.90
10788;DHT22;5446;50.826;4.380;2023-12-14T05:19:11;6.70;99.90
10788;DHT22;5446;50.826;4.380;2023-12-14T05:21:38;6.70;99.90
10788;DHT22;5446;50.826;4.380;2023-12-14T05:24:04;6.80;99.90
10788;DHT22;5446;50.826;4.380;2023-12-14T05:26:30;6.80;99.90
10788;DHT22;5446;50.826;4.380;2023-12-14T05:28:56;6.80;99.90
10788;DHT22;5446;50.826;4.380;2023-12-14T05:31:21;6.80;99.90
10788;DHT22;5446;50.826;4.380;2023-12-14T05:33:47;6.60;99.90
10788;DHT22;5446;50.826;4.380;2023-12-14T05:36:13;6.60;99.90
10788;DHT22;5446;50.826;4.380;2023-12-14T05:38:39;6.60;99.90
10788;DHT22;5446;50.826;4.380;2023-12-14T05:41:06;6.60;99.90
10788;DHT22;5446;50.826;4.380;2023-12-14T05:43:31;6.60;99.90
10788;DHT22;5446;50.826;4.380;2023-12-14T05:45:57;6.60;99.90
10788;DHT22;5446;50.826;4.380;2023-12-14T05:48:23;6.60;99.90
10788;DHT22;5446;50.826;4.380;2023-12-14T05:50:51;6.60;99.90
10788;DHT22;5446;50.826;4.380;2023-12-14T05:53:17;6.60;99.90
10788;DHT22;5446;50.826;4.380;2023-12-14T05:55:43;6.60;99.90
10788;DHT22;5446;50.826;4.380;2023-12-14T05:58:08;6.60;99.90
10788;DHT22;5446;50.826;4.380;2023-12-14T06:00:35;6.70;99.90
10788;DHT22;5446;50.826;4.380;2023-12-14T06:03:01;6.60;99.90
10788;DHT22;5446;50.826;4.380;2023-12-14T06:05:28;6.60;99.90
10788;DHT22;5446;50.826;4.380;2023-12-14T06:07:53;6.60;99.90
10788;DHT22;5446;50.826;4.380;2023-12-14T06:10:20;6.50;99.90
10788;DHT22;5446;50.826;4.380;2023-12-14T06:12:46;6.50;99.90
10788;DHT22;5446;50.826;4.380;2023-12-14T06:15:12;6.60;99.90
10788;DHT22;5446;50.826;4.380;2023-12-14T06:17:38;6.60;99.90
10788;DHT22;5446;50.826;4.380;2023-12-14T06:20:05;6.60;99.90
10788;DHT22;5446;50.826;4.380;2023-12-14T06:22:36;6.60;99.90
10788;DHT22;5446;50.826;4.380;2023-12-14T06:25:03;6.60;99.90
10788;DHT22;5446;50.826;4.380;2023-12-14T06:27:29;6.60;99.90
10788;DHT22;5446;50.826;4.380;2023-12-14T06:29:55;6.60;99.90
10788;DHT22;5446;50.826;4.380;2023-12-14T06:32:20;6.60;99.90
10788;DHT22;5446;50.826;4.380;2023-12-14T06:34:49;6.60;99.90
10788;DHT22;5446;50.826;4.380;2023-12-14T06:37:15;6.60;99.90
10788;DHT22;5446;50.826;4.380;2023-12-14T06:39:41;6.60;99.90
10788;DHT22;5446;50.826;4.380;2023-12-14T06:42:07;6.60;99.90
10788;DHT22;5446;50.826;4.380;2023-12-14T06:44:33;6.60;99.90
10788;DHT22;5446;50.826;4.380;2023-12-14T06:46:59;6.70;99.90
10788;DHT22;5446;50.826;4.380;2023-12-14T06:49:25;6.60;99.90
10788;DHT22;5446;50.826;4.380;2023-12-14T06:51:51;6.60;99.90
10788;DHT22;5446;50.826;4.380;2023-12-14T06:54:17;6.60;99.90
10788;DHT22;5446;50.826;4.380;2023-12-14T06:56:49;6.60;99.90
10788;DHT22;5446;50.826;4.380;2023-12-14T06:59:15;6.60;99.90
10788;DHT22;5446;50.826;4.380;2023-12-14T07:01:41;6.50;99.90
10788;DHT22;5446;50.826;4.380;2023-12-14T07:04:06;6.60;99.90
10788;DHT22;5446;50.826;4.380;2023-12-14T07:06:33;6.50;99.90
10788;DHT22;5446;50.826;4.380;2023-12-14T07:09:00;6.60;99.90
10788;DHT22;5446;50.826;4.380;2023-12-14T07:11:26;6.60;99.90
10788;DHT22;5446;50.826;4.380;2023-12-14T07:13:52;6.60;99.90
10788;DHT22;5446;50.826;4.380;2023-12-14T07:16:18;6.60;99.90
10788;DHT22;5446;50.826;4.380;2023-12-14T07:18:43;6.50;99.90
10788;DHT22;5446;50.826;4.380;2023-12-14T07:21:10;6.50;99.90
10788;DHT22;5446;50.826;4.380;2023-12-14T07:23:36;6.40;99.90
10788;DHT22;5446;50.826;4.380;2023-12-14T07:26:03;6.40;99.90
10788;DHT22;5446;50.826;4.380;2023-12-14T07:28:28;6.40;99.90
10788;DHT22;5446;50.826;4.380;2023-12-14T07:30:54;6.40;99.90
10788;DHT22;5446;50.826;4.380;2023-12-14T07:33:20;6.30;99.90
10788;DHT22;5446;50.826;4.380;2023-12-14T07:35:46;6.30;99.90
10788;DHT22;5446;50.826;4.380;2023-12-14T07:38:12;6.30;99.90
10788;DHT22;5446;50.826;4.380;2023-12-14T07:40:38;6.30;99.90
10788;DHT22;5446;50.826;4.380;2023-12-14T07:43:05;6.40;99.90
10788;DHT22;5446;50.826;4.380;2023-12-14T07:45:30;6.40;99.90
10788;DHT22;5446;50.826;4.380;2023-12-14T07:47:56;6.40;99.90
10788;DHT22;5446;50.826;4.380;2023-12-14T07:50:22;6.60;99.90
10788;DHT22;5446;50.826;4.380;2023-12-14T07:52:48;6.60;99.90
10788;DHT22;5446;50.826;4.380;2023-12-14T07:55:14;6.60;99.90
10788;DHT22;5446;50.826;4.380;2023-12-14T07:57:40;6.60;99.90
10788;DHT22;5446;50.826;4.380;2023-12-14T08:00:06;6.60;99.90
10788;DHT22;5446;50.826;4.380;2023-12-14T08:02:34;6.70;99.90
10788;DHT22;5446;50.826;4.380;2023-12-14T08:05:00;6.60;99.90
10788;DHT22;5446;50.826;4.380;2023-12-14T08:07:25;6.60;99.90
10788;DHT22;5446;50.826;4.380;2023-12-14T08:09:55;6.70;99.90
10788;DHT22;5446;50.826;4.380;2023-12-14T08:12:23;6.60;99.90
10788;DHT22;5446;50.826;4.380;2023-12-14T08:14:49;6.60;99.90
10788;DHT22;5446;50.826;4.380;2023-12-14T08:17:15;6.60;99.90
10788;DHT22;5446;50.826;4.380;2023-12-14T08:19:42;6.60;99.90
10788;DHT22;5446;50.826;4.380;2023-12-14T08:22:08;6.70;99.90
10788;DHT22;5446;50.826;4.380;2023-12-14T08:24:37;6.70;99.90
10788;DHT22;5446;50.826;4.380;2023-12-14T08:27:02;6.70;99.90
10788;DHT22;5446;50.826;4.380;2023-12-14T08:29:28;6.80;99.90
10788;DHT22;5446;50.826;4.380;2023-12-14T08:31:54;6.80;99.90
10788;DHT22;5446;50.826;4.380;2023-12-14T08:34:23;6.90;99.90
10788;DHT22;5446;50.826;4.380;2023-12-14T08:36:49;6.90;99.90
10788;DHT22;5446;50.826;4.380;2023-12-14T08:39:15;6.90;99.90
10788;DHT22;5446;50.826;4.380;2023-12-14T08:41:40;6.90;99.90
10788;DHT22;5446;50.826;4.380;2023-12-14T08:44:07;6.80;99.90
10788;DHT22;5446;50.826;4.380;2023-12-14T08:46:45;6.80;99.90
10788;DHT22;5446;50.826;4.380;2023-12-14T08:49:12;6.80;99.90
10788;DHT22;5446;50.826;4.380;2023-12-14T08:51:39;6.80;99.90
10788;DHT22;5446;50.826;4.380;2023-12-14T08:54:05;6.80;99.90
10788;DHT22;5446;50.826;4.380;2023-12-14T08:56:32;6.90;99.90
10788;DHT22;5446;50.826;4.380;2023-12-14T08:58:57;6.90;99.90
10788;DHT22;5446;50.826;4.380;2023-12-14T09:01:25;6.90;99.90
10788;DHT22;5446;50.826;4.380;2023-12-14T09:03:51;6.90;99.90
10788;DHT22;5446;50.826;4.380;2023-12-14T09:06:17;7.00;99.90
10788;DHT22;5446;50.826;4.380;2023-12-14T09:08:46;7.00;99.90
10788;DHT22;5446;50.826;4.380;2023-12-14T09:11:12;7.10;99.90
10788;DHT22;5446;50.826;4.380;2023-12-14T09:13:38;7.10;99.90
10788;DHT22;5446;50.826;4.380;2023-12-14T09:16:04;7.20;99.90
10788;DHT22;5446;50.826;4.380;2023-12-14T09:18:30;7.30;99.90
10788;DHT22;5446;50.826;4.380;2023-12-14T09:20:56;7.30;99.90
10788;DHT22;5446;50.826;4.380;2023-12-14T09:23:21;7.30;99.90
10788;DHT22;5446;50.826;4.380;2023-12-14T09:25:47;7.30;99.90
10788;DHT22;5446;50.826;4.380;2023-12-14T09:28:13;7.30;99.90
10788;DHT22;5446;50.826;4.380;2023-12-14T09:30:40;7.40;99.90
10788;DHT22;5446;50.826;4.380;2023-12-14T09:33:07;7.40;99.90
10788;DHT22;5446;50.826;4.380;2023-12-14T09:35:34;7.40;99.90
10788;DHT22;5446;50.826;4.380;2023-12-14T09:38:03;7.40;99.90
10788;DHT22;5446;50.826;4.380;2023-12-14T09:40:29;7.40;99.90
10788;DHT22;5446;50.826;4.380;2023-12-14T09:42:55;7.40;99.90
10788;DHT22;5446;50.826;4.380;2023-12-14T09:45:24;7.40;99.90
10788;DHT22;5446;50.826;4.380;2023-12-14T09:47:53;7.50;99.90
10788;DHT22;5446;50.826;4.380;2023-12-14T09:50:20;7.40;99.90
10788;DHT22;5446;50.826;4.380;2023-12-14T09:52:47;7.40;99.90
10788;DHT22;5446;50.826;4.380;2023-12-14T09:55:15;7.30;99.90
10788;DHT22;5446;50.826;4.380;2023-12-14T09:57:41;7.40;99.90
10788;DHT22;5446;50.826;4.380;2023-12-14T10:00:07;7.20;99.90
10788;DHT22;5446;50.826;4.380;2023-12-14T10:02:36;7.30;99.90
10788;DHT22;5446;50.826;4.380;2023-12-14T10:05:03;7.30;99.90
10788;DHT22;5446;50.826;4.380;2023-12-14T10:07:30;7.40;99.90
10788;DHT22;5446;50.826;4.380;2023-12-14T10:10:10;7.40;99.90
10788;DHT22;5446;50.826;4.380;2023-12-14T10:12:51;7.30;99.90
10788;DHT22;5446;50.826;4.380;2023-12-14T10:15:17;7.40;99.90
10788;DHT22;5446;50.826;4.380;2023-12-14T10:17:43;7.40;99.90
10788;DHT22;5446;50.826;4.380;2023-12-14T10:20:09;7.40;99.90
10788;DHT22;5446;50.826;4.380;2023-12-14T10:22:35;7.40;99.90
10788;DHT22;5446;50.826;4.380;2023-12-14T10:25:03;7.50;99.90
10788;DHT22;5446;50.826;4.380;2023-12-14T10:27:30;7.50;99.90
10788;DHT22;5446;50.826;4.380;2023-12-14T10:29:57;7.50;99.90
10788;DHT22;5446;50.826;4.380;2023-12-14T10:32:23;7.50;99.90
10788;DHT22;5446;50.826;4.380;2023-12-14T10:34:49;7.60;99.90
10788;DHT22;5446;50.826;4.380;2023-12-14T10:37:15;7.70;99.90
10788;DHT22;5446;50.826;4.380;2023-12-14T10:39:43;7.60;99.90
10788;DHT22;5446;50.826;4.380;2023-12-14T10:42:09;7.70;99.90
10788;DHT22;5446;50.826;4.380;2023-12-14T10:44:36;7.80;99.90
10788;DHT22;5446;50.826;4.380;2023-12-14T10:47:03;7.80;99.90
10788;DHT22;5446;50.826;4.380;2023-12-14T10:49:34;7.80;99.90
10788;DHT22;5446;50.826;4.380;2023-12-14T10:52:01;7.90;99.90
10788;DHT22;5446;50.826;4.380;2023-12-14T10:54:31;7.90;99.90
10788;DHT22;5446;50.826;4.380;2023-12-14T10:56:57;7.80;99.90
10788;DHT22;5446;50.826;4.380;2023-12-14T10:59:24;7.90;99.90
10788;DHT22;5446;50.826;4.380;2023-12-14T11:01:54;7.90;99.90
10788;DHT22;5446;50.826;4.380;2023-12-14T11:04:23;7.90;99.90
10788;DHT22;5446;50.826;4.380;2023-12-14T11:06:53;7.90;99.90
10788;DHT22;5446;50.826;4.380;2023-12-14T11:09:19;8.00;99.90
10788;DHT22;5446;50.826;4.380;2023-12-14T11:14:23;8.10;99.90
10788;DHT22;5446;50.826;4.380;2023-12-14T11:16:50;8.00;99.90
10788;DHT22;5446;50.826;4.380;2023-12-14T11:21:48;8.00;99.90
10788;DHT22;5446;50.826;4.380;2023-12-14T11:24:14;8.00;99.90
10788;DHT22;5446;50.826;4.380;2023-12-14T11:26:40;8.10;99.90
10788;DHT22;5446;50.826;4.380;2023-12-14T11:29:06;8.00;99.90
10788;DHT22;5446;50.826;4.380;2023-12-14T11:31:32;8.00;99.90
10788;DHT22;5446;50.826;4.380;2023-12-14T11:33:59;8.00;99.90
10788;DHT22;5446;50.826;4.380;2023-12-14T11:36:26;8.10;99.90
10788;DHT22;5446;50.826;4.380;2023-12-14T11:38:52;8.10;99.90
10788;DHT22;5446;50.826;4.380;2023-12-14T11:41:21;8.20;99.90
10788;DHT22;5446;50.826;4.380;2023-12-14T11:43:47;8.10;99.90
10788;DHT22;5446;50.826;4.380;2023-12-14T11:46:14;8.00;99.90
10788;DHT22;5446;50.826;4.380;2023-12-14T11:48:44;8.00;99.90
10788;DHT22;5446;50.826;4.380;2023-12-14T11:51:10;8.00;99.90
10788;DHT22;5446;50.826;4.380;2023-12-14T11:53:36;7.90;99.90
10788;DHT22;5446;50.826;4.380;2023-12-14T11:56:05;7.90;99.90
10788;DHT22;5446;50.826;4.380;2023-12-14T11:58:34;7.80;99.90
10788;DHT22;5446;50.826;4.380;2023-12-14T12:01:17;7.80;99.90
10788;DHT22;5446;50.826;4.380;2023-12-14T12:03:45;7.80;99.90
10788;DHT22;5446;50.826;4.380;2023-12-14T12:06:21;7.90;99.90
10788;DHT22;5446;50.826;4.380;2023-12-14T12:08:48;7.90;99.90
10788;DHT22;5446;50.826;4.380;2023-12-14T12:11:18;7.90;99.90
10788;DHT22;5446;50.826;4.380;2023-12-14T12:13:44;7.90;99.90
10788;DHT22;5446;50.826;4.380;2023-12-14T12:16:09;7.90;99.90
10788;DHT22;5446;50.826;4.380;2023-12-14T12:18:35;7.90;99.90
10788;DHT22;5446;50.826;4.380;2023-12-14T12:21:01;8.00;99.90
10788;DHT22;5446;50.826;4.380;2023-12-14T12:23:30;7.90;99.90
10788;DHT22;5446;50.826;4.380;2023-12-14T12:26:14;7.80;99.90
10788;DHT22;5446;50.826;4.380;2023-12-14T12:28:40;7.80;99.90
10788;DHT22;5446;50.826;4.380;2023-12-14T12:31:06;7.80;99.90
10788;DHT22;5446;50.826;4.380;2023-12-14T12:33:32;7.90;99.90
10788;DHT22;5446;50.826;4.380;2023-12-14T12:36:03;7.90;99.90
10788;DHT22;5446;50.826;4.380;2023-12-14T12:38:29;7.90;99.90
10788;DHT22;5446;50.826;4.380;2023-12-14T12:40:55;7.90;99.90
10788;DHT22;5446;50.826;4.380;2023-12-14T12:43:21;7.90;99.90
10788;DHT22;5446;50.826;4.380;2023-12-14T12:45:47;7.80;99.90
10788;DHT22;5446;50.826;4.380;2023-12-14T12:48:12;7.70;99.90
10788;DHT22;5446;50.826;4.380;2023-12-14T12:50:39;7.80;99.90
10788;DHT22;5446;50.826;4.380;2023-12-14T12:53:05;7.80;99.90
10788;DHT22;5446;50.826;4.380;2023-12-14T12:55:31;7.90;99.90
10788;DHT22;5446;50.826;4.380;2023-12-14T12:57:56;7.90;99.90
10788;DHT22;5446;50.826;4.380;2023-12-14T13:00:23;7.90;99.90
10788;DHT22;5446;50.826;4.380;2023-12-14T13:02:49;7.90;99.90
10788;DHT22;5446;50.826;4.380;2023-12-14T13:05:15;7.80;99.90
10788;DHT22;5446;50.826;4.380;2023-12-14T13:07:45;7.90;99.90
10788;DHT22;5446;50.826;4.380;2023-12-14T13:10:11;8.00;99.90
10788;DHT22;5446;50.826;4.380;2023-12-14T13:12:36;7.90;99.90
10788;DHT22;5446;50.826;4.380;2023-12-14T13:15:02;7.90;99.90
10788;DHT22;5446;50.826;4.380;2023-12-14T13:17:28;7.90;99.90
10788;DHT22;5446;50.826;4.380;2023-12-14T13:19:54;7.90;99.90
10788;DHT22;5446;50.826;4.380;2023-12-14T13:22:20;7.80;99.90
10788;DHT22;5446;50.826;4.380;2023-12-14T13:24:46;7.80;99.90
10788;DHT22;5446;50.826;4.380;2023-12-14T13:27:12;7.80;99.90
10788;DHT22;5446;50.826;4.380;2023-12-14T13:29:38;7.80;99.90
10788;DHT22;5446;50.826;4.380;2023-12-14T13:32:04;7.90;99.90
10788;DHT22;5446;50.826;4.380;2023-12-14T13:34:29;7.90;99.90
10788;DHT22;5446;50.826;4.380;2023-12-14T13:36:57;7.90;99.90
10788;DHT22;5446;50.826;4.380;2023-12-14T13:39:26;8.00;99.90
10788;DHT22;5446;50.826;4.380;2023-12-14T13:41:52;8.00;99.90
10788;DHT22;5446;50.826;4.380;2023-12-14T13:44:18;8.00;99.90
10788;DHT22;5446;50.826;4.380;2023-12-14T13:46:44;8.00;99.90
10788;DHT22;5446;50.826;4.380;2023-12-14T13:49:09;8.00;99.90
10788;DHT22;5446;50.826;4.380;2023-12-14T13:51:35;8.00;99.90
10788;DHT22;5446;50.826;4.380;2023-12-14T13:54:01;8.00;99.90
10788;DHT22;5446;50.826;4.380;2023-12-14T13:56:26;8.10;99.90
10788;DHT22;5446;50.826;4.380;2023-12-14T13:58:53;8.10;99.90
10788;DHT22;5446;50.826;4.380;2023-12-14T14:01:19;8.10;99.90
10788;DHT22;5446;50.826;4.380;2023-12-14T14:03:45;8.10;99.90
10788;DHT22;5446;50.826;4.380;2023-12-14T14:06:12;8.10;99.90
10788;DHT22;5446;50.826;4.380;2023-12-14T14:08:38;8.10;99.90
10788;DHT22;5446;50.826;4.380;2023-12-14T14:11:04;8.20;99.90
10788;DHT22;5446;50.826;4.380;2023-12-14T14:13:30;8.30;99.90
10788;DHT22;5446;50.826;4.380;2023-12-14T14:15:56;8.20;99.90
10788;DHT22;5446;50.826;4.380;2023-12-14T14:18:22;8.30;99.90
10788;DHT22;5446;50.826;4.380;2023-12-14T14:20:48;8.20;99.90
10788;DHT22;5446;50.826;4.380;2023-12-14T14:23:14;8.30;99.90
10788;DHT22;5446;50.826;4.380;2023-12-14T14:25:40;8.30;99.90
10788;DHT22;5446;50.826;4.380;2023-12-14T14:28:06;8.20;99.90
10788;DHT22;5446;50.826;4.380;2023-12-14T14:30:32;8.20;99.90
10788;DHT22;5446;50.826;4.380;2023-12-14T14:32:57;8.30;99.90
10788;DHT22;5446;50.826;4.380;2023-12-14T14:35:23;8.40;99.90
10788;DHT22;5446;50.826;4.380;2023-12-14T14:37:49;8.40;99.90
10788;DHT22;5446;50.826;4.380;2023-12-14T14:40:17;8.40;99.90
10788;DHT22;5446;50.826;4.380;2023-12-14T14:42:45;8.40;99.90
10788;DHT22;5446;50.826;4.380;2023-12-14T14:45:12;8.30;99.90
10788;DHT22;5446;50.826;4.380;2023-12-14T14:47:40;8.40;99.90
10788;DHT22;5446;50.826;4.380;2023-12-14T14:50:09;8.30;99.90
10788;DHT22;5446;50.826;4.380;2023-12-14T14:52:35;8.20;99.90
10788;DHT22;5446;50.826;4.380;2023-12-14T14:55:01;8.20;99.90
10788;DHT22;5446;50.826;4.380;2023-12-14T14:57:27;8.20;99.90
10788;DHT22;5446;50.826;4.380;2023-12-14T14:59:53;8.30;99.90
10788;DHT22;5446;50.826;4.380;2023-12-14T15:02:19;8.20;99.90
10788;DHT22;5446;50.826;4.380;2023-12-14T15:04:45;8.30;99.90
10788;DHT22;5446;50.826;4.380;2023-12-14T15:07:11;8.20;99.90
10788;DHT22;5446;50.826;4.380;2023-12-14T15:09:36;8.20;99.90
10788;DHT22;5446;50.826;4.380;2023-12-14T15:12:02;8.10;99.90
10788;DHT22;5446;50.826;4.380;2023-12-14T15:14:29;8.20;99.90
10788;DHT22;5446;50.826;4.380;2023-12-14T15:16:55;8.20;99.90
10788;DHT22;5446;50.826;4.380;2023-12-14T15:19:21;8.20;99.90
10788;DHT22;5446;50.826;4.380;2023-12-14T15:21:47;8.20;99.90
10788;DHT22;5446;50.826;4.380;2023-12-14T15:24:13;8.10;99.90
10788;DHT22;5446;50.826;4.380;2023-12-14T15:26:40;8.10;99.90
10788;DHT22;5446;50.826;4.380;2023-12-14T15:29:06;8.10;99.90
10788;DHT22;5446;50.826;4.380;2023-12-14T15:31:32;8.10;99.90
10788;DHT22;5446;50.826;4.380;2023-12-14T15:33:58;8.20;99.90
10788;DHT22;5446;50.826;4.380;2023-12-14T15:36:25;8.10;99.90
10788;DHT22;5446;50.826;4.380;2023-12-14T15:38:50;8.00;99.90
10788;DHT22;5446;50.826;4.380;2023-12-14T15:41:16;8.00;99.90
10788;DHT22;5446;50.826;4.380;2023-12-14T15:43:42;8.00;99.90
10788;DHT22;5446;50.826;4.380;2023-12-14T15:46:08;8.00;99.90
10788;DHT22;5446;50.826;4.380;2023-12-14T15:48:34;8.10;99.90
10788;DHT22;5446;50.826;4.380;2023-12-14T15:51:05;8.10;99.90
10788;DHT22;5446;50.826;4.380;2023-12-14T15:53:31;8.00;99.90
10788;DHT22;5446;50.826;4.380;2023-12-14T15:55:58;8.00;99.90
10788;DHT22;5446;50.826;4.380;2023-12-14T15:58:24;8.10;99.90
10788;DHT22;5446;50.826;4.380;2023-12-14T16:00:50;8.00;99.90